Address 0x4cc019f568b1a4394988f446953e6c8c42766a26

 
Txn Hash
Block
From
To
Value [Txn Fee]
0xb6f0c3b9815ea8770f9f4754685f1abfa2496a951a37e72dfea1c8c38774e30c92374702021-07-17 13:59:377 days 1 hr ago0x4cc019f568b1a4394988f446953e6c8c42766a26OUT 0x0d5550d52428e7e3175bfc9550207e4ad3859b171 BNB0.004689505
0xafdcd1b12fd1c3a954ecf884f3a7a522ffb16aa6cfbe66888bb470504dc0e53592373772021-07-17 13:54:587 days 1 hr ago0x4cc019f568b1a4394988f446953e6c8c42766a26OUT PancakeSwap: Router v20 BNB0.00055265
0x06669c55b9704e97c7058491b40b77aa2c45586899e3c5f7bc33420b896bae7592373612021-07-17 13:54:107 days 1 hr ago0x4cc019f568b1a4394988f446953e6c8c42766a26OUT BUSD-T Stablecoin0 BNB0.00022203
0xa9fc8b24d124eeb3d50d5f42eab79bd80fa39bcc97af57c0c72c8f853b7da7fb92260572021-07-17 4:28:527 days 10 hrs ago0x4cc019f568b1a4394988f446953e6c8c42766a26OUT 0x0abbaba95439dabc12a6ba59e0713a722a05cb310 BNB0.003275425
0xed0291bfebd4511081e9a9dcb49c0e6905f339453a662f792417c9a03fc420dc88079312021-07-02 15:06:1322 days 8 mins ago0x4cc019f568b1a4394988f446953e6c8c42766a26OUT 0x0abbaba95439dabc12a6ba59e0713a722a05cb310 BNB0.00273072
0x57b1563c61965c90a2e80371bbd2cd36130c11ddd0eade1d56fcb1c901f2257286066372021-06-25 14:13:4729 days 1 hr ago0x4cc019f568b1a4394988f446953e6c8c42766a26OUT 0x0abbaba95439dabc12a6ba59e0713a722a05cb310 BNB0.00273072
0x0c1969416f1895756f7a13c44fd406c9029fbd2cec1b6a4c6312bdc94df7387a86064592021-06-25 14:04:5329 days 1 hr ago0x4cc019f568b1a4394988f446953e6c8c42766a26OUT 0x81ff7304443e0622a1ff398f65b5597f0a0d19970 BNB0.00069758
0x19c43747f6a6b9690ba0b13ea29f7da560dcdf7176e66af0098d8564e6b8a0a786064292021-06-25 14:03:2329 days 1 hr ago0x4cc019f568b1a4394988f446953e6c8c42766a26OUT 0x79f5681480e643ced848dc34b8bbee47952e8fd00 BNB0.000561155
0xf4d24136b2d42c9674255cbab2be5fa01b2b42de98d85b962ad0837bfc17b45086063642021-06-25 14:00:0829 days 1 hr ago0x4cc019f568b1a4394988f446953e6c8c42766a26OUT 0x79f5681480e643ced848dc34b8bbee47952e8fd00 BNB0.000513565
0xf7664609cf52d39e0eb99abc35170d349b9688734200f0845bdc720f4da497a386063532021-06-25 13:59:3529 days 1 hr ago0x4cc019f568b1a4394988f446953e6c8c42766a26OUT 0x81ff7304443e0622a1ff398f65b5597f0a0d19970 BNB0.00057792
0xfbb938dadfb41935617dc189b360136a6f380f39191cf941e54e9a43d87151ca84885492021-06-21 11:24:2133 days 3 hrs ago0x4cc019f568b1a4394988f446953e6c8c42766a26OUT 0xe8a55a5cbc6b707c3f2e35f425503ff4e28bbe250 BNB0.000903395
0xd3646ce7f175e6ec9011372d175c76575c81164a165524deb4762903f202e2a884885072021-06-21 11:22:1433 days 3 hrs ago0x4cc019f568b1a4394988f446953e6c8c42766a26OUT 0x79f5681480e643ced848dc34b8bbee47952e8fd00 BNB0.00078982
0x8b9ceb9ab13904d483a3f408c38a14817d98cf0683e1d7864f455a0cced4c7f484884592021-06-21 11:19:5033 days 3 hrs ago0x4cc019f568b1a4394988f446953e6c8c42766a26OUT 0x81ff7304443e0622a1ff398f65b5597f0a0d19970 BNB0.00050292
0xf9d62551b0be727fc8602eaf9db7a9a549ec688fda923dbc9604b1d58f29ed8184884242021-06-21 11:18:0533 days 3 hrs ago0x4cc019f568b1a4394988f446953e6c8c42766a26OUT 0x81ff7304443e0622a1ff398f65b5597f0a0d19970 BNB0.00057792
0x15c40efdb9ef722b697eb50ba4974e6b8444647f3097a9bbbfc5bf4aac8b735984883522021-06-21 11:14:2933 days 4 hrs ago0x4cc019f568b1a4394988f446953e6c8c42766a26OUT 0x0abbaba95439dabc12a6ba59e0713a722a05cb310 BNB0.00326869
0x5cecc5550098a67fc57277335f033d234ef3cee14d44ef0e84cd925d79d0ef1582079402021-06-11 15:38:2042 days 23 hrs ago0x4cc019f568b1a4394988f446953e6c8c42766a26OUT 0x79f5681480e643ced848dc34b8bbee47952e8fd00 BNB0.00068634
0x86edaf63797e72307296731f6aec715f479c2cf0243cc72d29741d882b02376582079332021-06-11 15:37:5942 days 23 hrs ago0x4cc019f568b1a4394988f446953e6c8c42766a26OUT Omni Consumer Protocols: OCP Token0 BNB0.00022214
0x6ad54ebfc8b0934a8003d2d8325164ec81d2e33a2deb433e663aee8a5ba9b05082078792021-06-11 15:35:1742 days 23 hrs ago0x4cc019f568b1a4394988f446953e6c8c42766a26OUT 0x81ff7304443e0622a1ff398f65b5597f0a0d19970 BNB0.00065292
0x8b62be82546ea7abfa3853710a9147548ceca43555f354ec7183ec04a16a4ba982076772021-06-11 15:25:1142 days 23 hrs ago0x4cc019f568b1a4394988f446953e6c8c42766a26OUT 0x81ff7304443e0622a1ff398f65b5597f0a0d19970 BNB0.00071015
0xc2fb205293df9c6a2ae8ebf351df7736e71a9f684113b8bd66432bd3adfebea582076632021-06-11 15:24:2942 days 23 hrs ago0x4cc019f568b1a4394988f446953e6c8c42766a26OUT OPEN Governance Token: pOPEN Token0 BNB0.00023951
0x4796ca1cfb320170caf6fa5601a0934661f850a5215d841839fa88c9be06b92182075602021-06-11 15:19:1842 days 23 hrs ago0x4cc019f568b1a4394988f446953e6c8c42766a26OUT 0xe8a55a5cbc6b707c3f2e35f425503ff4e28bbe250 BNB0.000903395
0x361cbe087a6c0c5966efef7a68bbc3c865c4847be1cf3c5ef7c109ba75180f0882075282021-06-11 15:17:4042 days 23 hrs ago0x4cc019f568b1a4394988f446953e6c8c42766a26OUT 0xe8a55a5cbc6b707c3f2e35f425503ff4e28bbe250 BNB0.001368435
0x3d956f7cc922bc75aeb413a1306f139792ccf115650e28076096c0b61b5c732782074682021-06-11 15:14:2043 days ago0x4cc019f568b1a4394988f446953e6c8c42766a26OUT 0x0abbaba95439dabc12a6ba59e0713a722a05cb310 BNB0.000387935
0xd060267182f0a3453a8a85494011d22b52b7a9f107dc086b2efe3b65383fdf7b82074442021-06-11 15:13:0643 days 2 mins ago0x4cc019f568b1a4394988f446953e6c8c42766a26OUT 0xe8a55a5cbc6b707c3f2e35f425503ff4e28bbe250 BNB0.00095439
0x8e44ab6a86a496b1b0b0a3661294a076392a8e4623db28d2ced7a1650a85908382074112021-06-11 15:11:2743 days 3 mins ago0x4cc019f568b1a4394988f446953e6c8c42766a26OUT Omni COMP Governance Token: OMNIC Token0 BNB0.00022884
[ Download CSV Export 
Latest 1 internal transaction
Parent Txn Hash Block From To Value
0xafdcd1b12fd1c3a954ecf884f3a7a522ffb16aa6cfbe66888bb470504dc0e53592373772021-07-17 13:54:587 days 1 hr ago PancakeSwap: Router v20x4cc019f568b1a4394988f446953e6c8c42766a261.010897539593345794 BNB
[ Download CSV Export 
Loading

Contract Name:
0 BNB

Compiler Version
0

Optimization Enabled:
0 BNB

Other Settings:
-NA-
Block Transaction Gas Used Reward
Age Block Fee Address BC Fee Address Voting Power Jailed Incoming
Block Uncle Number Difficulty Gas Used Reward
Loading
Loading
Make sure to use the "Vote Down" button for any spammy posts, and the "Vote Up" for interesting conversations.